createdAt,value
2023-08-14T00:01:08.333Z,27.58
2023-08-14T00:03:39.472Z,27.64
2023-08-14T00:06:08.636Z,27.76
2023-08-14T00:08:37.486Z,27.81
2023-08-14T00:11:06.684Z,27.76
2023-08-14T00:13:50.866Z,27.88
2023-08-14T00:16:20.391Z,27.96
2023-08-14T00:18:49.287Z,27.96
2023-08-14T00:21:18.526Z,27.64
2023-08-14T00:23:47.410Z,27.44
2023-08-14T00:26:16.736Z,27.58
2023-08-14T00:28:45.581Z,27.45
2023-08-14T00:31:15.049Z,27.59
2023-08-14T00:33:43.854Z,27.57
2023-08-14T00:36:13.398Z,27.50
2023-08-14T00:38:42.255Z,27.49
2023-08-14T00:41:11.477Z,27.37
2023-08-14T00:43:40.254Z,27.59
2023-08-14T00:46:09.792Z,27.66
2023-08-14T00:48:39.410Z,27.37
2023-08-14T00:51:08.638Z,27.37
2023-08-14T00:53:37.541Z,27.44
2023-08-14T00:56:06.793Z,27.33
2023-08-14T00:58:35.660Z,27.15
2023-08-14T01:01:05.181Z,27.14
2023-08-14T01:03:34.128Z,27.17
2023-08-14T01:06:03.574Z,27.30
2023-08-14T01:08:32.436Z,27.18
2023-08-14T01:11:07.445Z,27.18
2023-08-14T01:13:49.829Z,27.12
2023-08-14T01:16:25.126Z,27.03
2023-08-14T01:18:54.552Z,26.97
2023-08-14T01:21:53.497Z,26.82
2023-08-14T01:24:28.024Z,26.82
2023-08-14T01:26:57.175Z,26.82
2023-08-14T01:29:25.923Z,26.93
2023-08-14T01:31:55.110Z,26.69
2023-08-14T01:34:24.746Z,26.70
2023-08-14T01:37:34.447Z,27.05
2023-08-14T01:40:25.398Z,27.13
2023-08-14T01:43:15.443Z,27.16
2023-08-14T01:45:44.274Z,26.75
2023-08-14T01:48:13.481Z,26.80
2023-08-14T01:50:42.264Z,26.91
2023-08-14T01:53:11.483Z,27.03
2023-08-14T01:55:40.367Z,27.09
2023-08-14T01:58:09.558Z,26.81
2023-08-14T02:00:38.956Z,26.78
2023-08-14T02:03:08.406Z,26.57
2023-08-14T02:05:37.352Z,26.65
2023-08-14T02:08:06.732Z,26.59
2023-08-14T02:10:35.663Z,26.58
2023-08-14T02:13:04.974Z,26.66
2023-08-14T02:15:33.753Z,26.76
2023-08-14T02:18:03.106Z,26.65
2023-08-14T02:20:32.064Z,26.53
2023-08-14T02:23:01.574Z,26.49
2023-08-14T02:25:32.424Z,26.43
2023-08-14T02:28:01.622Z,26.36
2023-08-14T02:30:30.651Z,26.40
2023-08-14T02:32:59.998Z,26.32
2023-08-14T02:35:28.896Z,26.23
2023-08-14T02:37:58.695Z,26.29
2023-08-14T02:40:27.856Z,26.22
2023-08-14T02:43:02.705Z,26.24
2023-08-14T02:45:32.076Z,26.38
2023-08-14T02:48:01.473Z,26.30
2023-08-14T02:50:31.382Z,26.12
2023-08-14T02:53:01.018Z,26.20
2023-08-14T02:55:30.019Z,26.17
2023-08-14T02:57:59.322Z,26.18
2023-08-14T03:00:28.270Z,26.14
2023-08-14T03:02:57.513Z,26.08
2023-08-14T03:05:26.382Z,26.08
2023-08-14T03:07:55.425Z,26.04
2023-08-14T03:10:26.927Z,26.07
2023-08-14T03:12:56.600Z,26.12
2023-08-14T03:15:25.562Z,26.03
2023-08-14T03:17:54.677Z,26.13
2023-08-14T03:20:23.482Z,26.26
2023-08-14T03:22:52.651Z,26.04
2023-08-14T03:25:21.769Z,26.14
2023-08-14T03:27:50.950Z,26.11
2023-08-14T03:30:19.782Z,26.32
2023-08-14T03:32:49.086Z,26.17
2023-08-14T03:35:18.210Z,26.23
2023-08-14T03:37:47.347Z,26.22
2023-08-14T03:40:16.330Z,26.34
2023-08-14T03:42:45.531Z,26.30
2023-08-14T03:45:14.373Z,25.97
2023-08-14T03:47:43.669Z,26.00
2023-08-14T03:50:12.603Z,25.77
2023-08-14T03:52:42.161Z,25.96
2023-08-14T03:55:10.939Z,26.09
2023-08-14T03:57:39.982Z,25.89
2023-08-14T04:00:09.585Z,25.90
2023-08-14T04:02:45.323Z,25.89
2023-08-14T04:05:14.158Z,25.85
2023-08-14T04:07:43.188Z,25.84
2023-08-14T04:10:12.012Z,25.85
2023-08-14T04:12:41.042Z,25.86
2023-08-14T04:15:16.736Z,25.84
2023-08-14T04:17:46.623Z,25.80
2023-08-14T04:20:15.583Z,25.76
2023-08-14T04:22:44.586Z,25.83
2023-08-14T04:25:13.286Z,25.93
2023-08-14T04:27:42.342Z,25.79
2023-08-14T04:30:11.649Z,25.64
2023-08-14T04:32:41.394Z,25.62
2023-08-14T04:35:10.640Z,25.63
2023-08-14T04:37:40.634Z,25.66
2023-08-14T04:40:10.324Z,25.75
2023-08-14T04:42:41.286Z,25.81
2023-08-14T04:45:11.414Z,25.86
2023-08-14T04:47:40.475Z,25.80
2023-08-14T04:50:11.077Z,25.76
2023-08-14T04:52:40.103Z,25.79
2023-08-14T04:55:09.419Z,25.81
2023-08-14T04:57:40.924Z,25.86
2023-08-14T05:00:11.752Z,25.76
2023-08-14T05:02:41.527Z,25.83
2023-08-14T05:05:10.598Z,25.91
2023-08-14T05:07:39.650Z,25.78
2023-08-14T05:10:08.644Z,25.74
2023-08-14T05:12:37.723Z,25.74
2023-08-14T05:15:07.120Z,25.73
2023-08-14T05:17:36.674Z,25.69
2023-08-14T05:20:06.033Z,25.79
2023-08-14T05:22:35.071Z,25.81
2023-08-14T05:25:04.018Z,25.77
2023-08-14T05:27:40.190Z,25.78
2023-08-14T05:30:09.652Z,25.86
2023-08-14T05:32:39.274Z,26.00
2023-08-14T05:35:08.773Z,26.05
2023-08-14T05:37:37.881Z,25.93
2023-08-14T05:40:07.332Z,26.09
2023-08-14T05:42:36.364Z,26.00
2023-08-14T05:45:05.503Z,26.08
2023-08-14T05:47:34.524Z,26.07
2023-08-14T05:50:03.312Z,26.05
2023-08-14T05:52:32.359Z,26.02
2023-08-14T05:55:01.126Z,26.15
2023-08-14T05:57:30.140Z,26.35
2023-08-14T05:59:58.846Z,26.23
2023-08-14T06:02:27.954Z,26.29
2023-08-14T06:04:56.719Z,26.43
2023-08-14T06:07:25.971Z,26.48
2023-08-14T06:09:54.767Z,26.39
2023-08-14T06:12:24.036Z,26.42
2023-08-14T06:14:52.912Z,26.54
2023-08-14T06:17:22.038Z,26.59
2023-08-14T06:19:50.800Z,26.52
2023-08-14T06:22:20.586Z,26.48
2023-08-14T06:24:49.418Z,26.63
2023-08-14T06:27:18.650Z,26.61
2023-08-14T06:29:47.472Z,26.72
2023-08-14T06:32:17.141Z,26.89
2023-08-14T06:34:46.092Z,26.89
2023-08-14T06:37:15.182Z,26.86
2023-08-14T06:39:44.073Z,26.97
2023-08-14T06:42:13.141Z,27.02
2023-08-14T06:44:41.972Z,26.98
2023-08-14T06:47:11.114Z,27.04
2023-08-14T06:49:39.901Z,27.11
2023-08-14T06:52:09.036Z,27.09
2023-08-14T06:54:37.841Z,27.09
2023-08-14T06:57:07.398Z,27.12
2023-08-14T06:59:36.389Z,27.12
2023-08-14T07:02:05.531Z,27.19
2023-08-14T07:04:34.322Z,27.26
2023-08-14T07:07:03.537Z,27.30
2023-08-14T07:09:32.310Z,27.32
2023-08-14T07:12:01.375Z,27.31
2023-08-14T07:14:31.105Z,27.35
2023-08-14T07:17:00.460Z,27.40
2023-08-14T07:19:29.222Z,27.43
2023-08-14T07:21:58.372Z,27.50
2023-08-14T07:24:27.043Z,27.52
2023-08-14T07:26:56.171Z,27.55
2023-08-14T07:29:24.920Z,27.63
2023-08-14T07:31:54.007Z,27.68
2023-08-14T07:34:22.763Z,27.70
2023-08-14T07:36:51.883Z,27.72
2023-08-14T07:39:20.721Z,27.77
2023-08-14T07:41:49.784Z,27.72
2023-08-14T07:44:18.567Z,27.68
2023-08-14T07:46:47.690Z,27.72
2023-08-14T07:49:16.431Z,27.77
2023-08-14T07:51:45.506Z,27.77
2023-08-14T07:54:14.220Z,27.82
2023-08-14T07:56:46.092Z,27.71
2023-08-14T07:59:15.799Z,27.65
2023-08-14T08:01:45.011Z,27.75
2023-08-14T08:04:26.528Z,27.74
2023-08-14T08:06:56.325Z,27.78
2023-08-14T08:09:25.100Z,27.86
2023-08-14T08:11:54.211Z,27.92
2023-08-14T08:14:22.978Z,27.99
2023-08-14T08:16:52.107Z,27.97
2023-08-14T08:19:22.806Z,28.02
2023-08-14T08:21:52.078Z,28.06
2023-08-14T08:24:21.169Z,28.07
2023-08-14T08:26:50.318Z,28.14
2023-08-14T08:29:18.968Z,28.22
2023-08-14T08:31:48.414Z,28.25
2023-08-14T08:34:17.174Z,28.34
2023-08-14T08:36:46.278Z,28.40
2023-08-14T08:39:14.981Z,28.38
2023-08-14T08:41:46.340Z,28.37
2023-08-14T08:44:23.288Z,28.34
2023-08-14T08:47:01.305Z,28.36
2023-08-14T08:49:30.327Z,28.32
2023-08-14T08:51:59.405Z,28.34
2023-08-14T08:54:28.516Z,28.40
2023-08-14T08:56:58.148Z,28.36
2023-08-14T08:59:30.240Z,28.39
2023-08-14T09:01:59.414Z,28.39
2023-08-14T09:04:28.386Z,28.42
2023-08-14T09:06:57.662Z,28.44
2023-08-14T09:09:26.986Z,28.50
2023-08-14T09:11:56.119Z,28.53
2023-08-14T09:14:25.341Z,28.69
2023-08-14T09:16:59.825Z,28.65
2023-08-14T09:19:29.427Z,28.63
2023-08-14T09:21:58.593Z,28.62
2023-08-14T09:24:27.329Z,28.90
2023-08-14T09:26:56.354Z,28.94
2023-08-14T09:29:25.053Z,29.00
2023-08-14T09:31:54.808Z,29.05
2023-08-14T09:34:23.754Z,29.13
2023-08-14T09:36:52.903Z,29.17
2023-08-14T09:39:21.648Z,29.11
2023-08-14T09:41:50.770Z,29.22
2023-08-14T09:44:25.609Z,29.25
2023-08-14T09:46:56.354Z,29.20
2023-08-14T09:49:27.209Z,29.17
2023-08-14T09:51:57.173Z,29.24
2023-08-14T09:54:35.612Z,29.24
2023-08-14T09:57:09.660Z,29.32
2023-08-14T09:59:38.860Z,29.41
2023-08-14T10:02:14.469Z,29.32
2023-08-14T10:04:46.650Z,29.28
2023-08-14T10:07:15.981Z,29.34
2023-08-14T10:10:06.420Z,29.52
2023-08-14T10:12:39.610Z,29.53
2023-08-14T10:15:12.300Z,29.45
2023-08-14T10:18:00.433Z,29.49
2023-08-14T10:20:31.623Z,29.44
2023-08-14T10:23:00.870Z,29.54
2023-08-14T10:25:29.663Z,29.62
2023-08-14T10:27:58.946Z,29.70
2023-08-14T10:30:27.835Z,29.65
2023-08-14T10:32:57.331Z,29.66
2023-08-14T10:35:27.049Z,29.77
2023-08-14T10:38:09.621Z,29.65
2023-08-14T10:40:40.111Z,29.62
2023-08-14T10:43:09.271Z,29.62
2023-08-14T10:45:38.084Z,29.65
2023-08-14T10:48:10.903Z,29.88
2023-08-14T10:50:39.839Z,29.85
2023-08-14T10:53:11.689Z,29.81
2023-08-14T10:55:48.208Z,29.70
2023-08-14T10:58:38.321Z,29.67
2023-08-14T11:01:11.197Z,29.72
2023-08-14T11:04:09.781Z,29.88
2023-08-14T11:07:03.902Z,29.82
2023-08-14T11:09:37.024Z,29.78
2023-08-14T11:12:11.432Z,29.76
2023-08-14T11:14:41.864Z,30.14
2023-08-14T11:17:10.979Z,30.04
2023-08-14T11:19:40.370Z,29.99
2023-08-14T11:22:09.372Z,29.98
2023-08-14T11:24:39.087Z,30.04
2023-08-14T11:27:08.237Z,30.01
2023-08-14T11:29:51.736Z,30.07
2023-08-14T11:32:21.980Z,30.22
2023-08-14T11:34:52.887Z,30.34
2023-08-14T11:37:21.636Z,30.24
2023-08-14T11:39:50.777Z,30.35
2023-08-14T11:42:20.323Z,30.18
2023-08-14T11:44:50.022Z,30.06
2023-08-14T11:47:19.222Z,30.26
2023-08-14T11:49:49.090Z,30.30
2023-08-14T11:52:18.101Z,30.25
2023-08-14T11:54:47.731Z,30.35
2023-08-14T11:57:16.542Z,30.44
2023-08-14T11:59:46.575Z,30.31
2023-08-14T12:02:15.239Z,30.26
2023-08-14T12:04:44.298Z,30.47
2023-08-14T12:07:13.042Z,30.46
2023-08-14T12:09:42.107Z,30.50
2023-08-14T12:12:12.071Z,30.58
2023-08-14T12:14:46.291Z,30.54
2023-08-14T12:17:20.449Z,30.49
2023-08-14T12:19:51.448Z,30.40
2023-08-14T12:22:23.962Z,30.58
2023-08-14T12:24:53.035Z,30.57
2023-08-14T12:27:24.097Z,30.50
2023-08-14T12:29:53.834Z,30.71
2023-08-14T12:32:23.356Z,30.53
2023-08-14T12:34:52.408Z,30.52
2023-08-14T12:37:21.757Z,30.60
2023-08-14T12:39:57.334Z,30.60
2023-08-14T12:42:26.046Z,30.53
2023-08-14T12:44:55.193Z,30.64
2023-08-14T12:47:24.513Z,30.73
2023-08-14T12:49:54.182Z,30.68
2023-08-14T12:52:22.894Z,30.62
2023-08-14T12:55:04.494Z,30.54
2023-08-14T12:57:34.539Z,30.68
2023-08-14T13:00:05.527Z,30.62
2023-08-14T13:02:34.397Z,30.70
2023-08-14T13:05:04.507Z,30.63
2023-08-14T13:07:33.712Z,30.99
2023-08-14T13:10:02.874Z,30.76
2023-08-14T13:12:31.611Z,30.79
2023-08-14T13:15:00.715Z,30.84
2023-08-14T13:17:29.579Z,30.79
2023-08-14T13:19:58.728Z,30.81
2023-08-14T13:22:28.025Z,30.75
2023-08-14T13:24:57.197Z,30.77
2023-08-14T13:27:26.000Z,31.08
2023-08-14T13:29:55.360Z,30.93
2023-08-14T13:32:24.190Z,30.83
2023-08-14T13:34:53.299Z,30.70
2023-08-14T13:37:22.024Z,30.76
2023-08-14T13:39:51.190Z,30.97
2023-08-14T13:42:20.241Z,30.94
2023-08-14T13:44:49.961Z,30.97
2023-08-14T13:47:18.842Z,31.07
2023-08-14T13:49:48.069Z,31.01
2023-08-14T13:52:16.899Z,30.99
2023-08-14T13:54:46.319Z,31.07
2023-08-14T13:57:15.042Z,31.05
2023-08-14T13:59:44.089Z,30.99
2023-08-14T14:02:14.453Z,30.92
2023-08-14T14:04:43.819Z,30.99
2023-08-14T14:07:14.390Z,31.19
2023-08-14T14:09:43.690Z,31.30
2023-08-14T14:12:12.508Z,31.24
2023-08-14T14:14:41.618Z,31.16
2023-08-14T14:17:10.447Z,31.28
2023-08-14T14:19:41.292Z,31.20
2023-08-14T14:22:10.084Z,31.17
2023-08-14T14:24:39.375Z,31.27
2023-08-14T14:27:08.752Z,31.17
2023-08-14T14:29:37.832Z,31.20
2023-08-14T14:32:07.057Z,31.25
2023-08-14T14:34:36.224Z,31.40
2023-08-14T14:37:05.126Z,31.54
2023-08-14T14:39:34.354Z,31.33
2023-08-14T14:42:03.112Z,31.35
2023-08-14T14:44:32.313Z,31.35
2023-08-14T14:47:01.183Z,31.28
2023-08-14T14:49:30.434Z,31.26
2023-08-14T14:52:02.639Z,31.21
2023-08-14T14:54:31.766Z,31.33
2023-08-14T14:57:00.527Z,31.26
2023-08-14T14:59:29.636Z,31.44
2023-08-14T15:01:58.499Z,31.34
2023-08-14T15:04:30.272Z,31.35
2023-08-14T15:06:59.286Z,31.29
2023-08-14T15:09:28.332Z,31.18
2023-08-14T15:11:57.067Z,31.28
2023-08-14T15:14:26.165Z,31.39
2023-08-14T15:16:54.794Z,31.32
2023-08-14T15:19:23.920Z,31.33
2023-08-14T15:21:52.571Z,31.32
2023-08-14T15:24:21.541Z,31.28
2023-08-14T15:26:52.070Z,31.27
2023-08-14T15:29:21.484Z,31.34
2023-08-14T15:31:50.177Z,31.39
2023-08-14T15:34:19.232Z,31.34
2023-08-14T15:36:47.963Z,31.31
2023-08-14T15:39:16.920Z,31.28
2023-08-14T15:41:45.839Z,31.43
2023-08-14T15:44:14.923Z,31.42
2023-08-14T15:46:43.643Z,31.39
2023-08-14T15:49:12.931Z,31.33
2023-08-14T15:51:41.734Z,31.29
2023-08-14T15:54:10.765Z,31.37
2023-08-14T15:56:39.470Z,31.42
2023-08-14T15:59:08.547Z,31.40
2023-08-14T16:01:37.210Z,31.36
2023-08-14T16:04:06.623Z,31.29
2023-08-14T16:06:35.488Z,31.33
2023-08-14T16:09:04.782Z,31.24
2023-08-14T16:11:33.537Z,31.21
2023-08-14T16:14:02.559Z,31.25
2023-08-14T16:16:31.274Z,31.23
2023-08-14T16:19:00.480Z,31.27
2023-08-14T16:21:29.350Z,31.19
2023-08-14T16:23:58.569Z,31.18
2023-08-14T16:26:27.298Z,31.17
2023-08-14T16:28:56.219Z,31.16
2023-08-14T16:31:24.970Z,31.18
2023-08-14T16:33:54.293Z,31.12
2023-08-14T16:36:22.941Z,31.10
2023-08-14T16:38:51.995Z,31.08
2023-08-14T16:41:20.590Z,31.08
2023-08-14T16:43:49.626Z,31.03
2023-08-14T16:46:18.410Z,30.99
2023-08-14T16:48:48.277Z,30.98
2023-08-14T16:51:16.895Z,30.96
2023-08-14T16:53:45.909Z,30.96
2023-08-14T16:56:14.703Z,30.97
2023-08-14T16:58:43.770Z,30.98
2023-08-14T17:01:12.409Z,30.96
2023-08-14T17:03:41.482Z,30.92
2023-08-14T17:06:10.211Z,30.91
2023-08-14T17:08:39.419Z,30.89
2023-08-14T17:11:08.238Z,30.96
2023-08-14T17:13:37.213Z,30.92
2023-08-14T17:16:09.496Z,30.89
2023-08-14T17:18:38.591Z,30.90
2023-08-14T17:21:07.359Z,30.88
2023-08-14T17:23:36.390Z,30.89
2023-08-14T17:26:05.893Z,30.96
2023-08-14T17:28:34.989Z,30.88
2023-08-14T17:31:03.769Z,30.81
2023-08-14T17:33:33.083Z,30.75
2023-08-14T17:36:01.778Z,30.79
2023-08-14T17:38:30.837Z,30.83
2023-08-14T17:40:59.575Z,30.82
2023-08-14T17:43:28.743Z,30.80
2023-08-14T17:45:57.433Z,30.80
2023-08-14T17:48:26.477Z,30.80
2023-08-14T17:50:55.357Z,30.70
2023-08-14T17:53:26.113Z,30.65
2023-08-14T17:55:54.991Z,30.64
2023-08-14T17:58:24.346Z,30.68
2023-08-14T18:00:53.239Z,30.66
2023-08-14T18:03:22.512Z,30.66
2023-08-14T18:05:52.126Z,30.60
2023-08-14T18:08:21.386Z,30.68
2023-08-14T18:10:50.289Z,30.60
2023-08-14T18:13:19.475Z,30.56
2023-08-14T18:15:50.058Z,30.55
2023-08-14T18:18:19.271Z,30.54
2023-08-14T18:20:53.520Z,30.58
2023-08-14T18:23:22.831Z,30.56
2023-08-14T18:25:54.913Z,30.59
2023-08-14T18:28:24.492Z,30.52
2023-08-14T18:30:53.439Z,30.53
2023-08-14T18:33:22.536Z,30.53
2023-08-14T18:35:51.396Z,30.53
2023-08-14T18:38:20.670Z,30.54
2023-08-14T18:40:49.759Z,30.57
2023-08-14T18:43:18.917Z,30.58
2023-08-14T18:45:47.965Z,30.55
2023-08-14T18:48:17.619Z,30.58
2023-08-14T18:50:46.393Z,30.55
2023-08-14T18:53:15.928Z,30.55
2023-08-14T18:55:44.640Z,30.54
2023-08-14T18:58:14.652Z,30.51
2023-08-14T19:00:43.444Z,30.51
2023-08-14T19:03:12.655Z,30.49
2023-08-14T19:05:41.581Z,30.48
2023-08-14T19:08:10.747Z,30.49
2023-08-14T19:10:39.512Z,30.49
2023-08-14T19:13:08.764Z,30.45
2023-08-14T19:15:37.586Z,30.44
2023-08-14T19:18:06.811Z,30.45
2023-08-14T19:20:35.648Z,30.43
2023-08-14T19:23:04.843Z,30.38
2023-08-14T19:25:33.735Z,30.28
2023-08-14T19:28:11.407Z,30.31
2023-08-14T19:30:45.164Z,30.26
2023-08-14T19:33:14.420Z,30.24
2023-08-14T19:35:44.341Z,30.26
2023-08-14T19:38:13.313Z,30.28
2023-08-14T19:40:41.940Z,30.27
2023-08-14T19:43:11.045Z,30.29
2023-08-14T19:45:39.654Z,30.28
2023-08-14T19:48:08.685Z,30.28
2023-08-14T19:50:37.356Z,30.26
2023-08-14T19:53:06.243Z,30.26
2023-08-14T19:55:39.092Z,30.26
2023-08-14T19:58:08.365Z,30.25
2023-08-14T20:00:37.115Z,30.24
2023-08-14T20:03:06.383Z,30.20
2023-08-14T20:05:35.236Z,30.19
2023-08-14T20:08:04.493Z,30.20
2023-08-14T20:10:33.080Z,30.19
2023-08-14T20:13:01.994Z,30.12
2023-08-14T20:15:30.589Z,30.10
2023-08-14T20:17:59.702Z,30.15
2023-08-14T20:20:28.552Z,30.09
2023-08-14T20:22:58.049Z,30.08
2023-08-14T20:25:28.990Z,30.04
2023-08-14T20:27:57.989Z,30.01
2023-08-14T20:30:26.690Z,29.99
2023-08-14T20:32:55.803Z,29.95
2023-08-14T20:35:24.519Z,29.96
2023-08-14T20:37:53.539Z,29.94
2023-08-14T20:40:22.231Z,29.92
2023-08-14T20:42:51.133Z,29.90
2023-08-14T20:45:21.030Z,29.92
2023-08-14T20:47:50.024Z,29.90
2023-08-14T20:50:18.785Z,29.85
2023-08-14T20:52:47.845Z,29.91
2023-08-14T20:55:16.505Z,29.89
2023-08-14T20:57:45.448Z,29.86
2023-08-14T21:00:14.424Z,29.84
2023-08-14T21:02:43.889Z,29.80
2023-08-14T21:05:12.689Z,29.81
2023-08-14T21:07:41.726Z,29.79
2023-08-14T21:10:10.422Z,29.81
2023-08-14T21:12:39.535Z,29.79
2023-08-14T21:15:08.567Z,29.80
2023-08-14T21:17:37.832Z,29.84
2023-08-14T21:20:07.221Z,29.80
2023-08-14T21:22:36.412Z,29.79
2023-08-14T21:25:05.522Z,29.76
2023-08-14T21:27:34.587Z,29.81
2023-08-14T21:30:03.506Z,29.82
2023-08-14T21:32:32.549Z,29.78
2023-08-14T21:35:01.342Z,29.75
2023-08-14T21:37:30.397Z,29.69
2023-08-14T21:39:59.024Z,29.69
2023-08-14T21:42:28.016Z,29.65
2023-08-14T21:44:56.898Z,29.60
2023-08-14T21:47:25.892Z,29.64
2023-08-14T21:49:54.595Z,29.62
2023-08-14T21:52:23.683Z,29.57
2023-08-14T21:54:52.760Z,29.65
2023-08-14T21:57:22.092Z,29.58
2023-08-14T21:59:51.678Z,29.60
2023-08-14T22:02:21.679Z,29.63
2023-08-14T22:04:51.886Z,29.59
2023-08-14T22:07:23.039Z,29.46
2023-08-14T22:09:51.782Z,29.55
2023-08-14T22:12:20.853Z,29.46
2023-08-14T22:14:49.580Z,29.41
2023-08-14T22:17:20.118Z,29.52
2023-08-14T22:19:52.790Z,29.50
2023-08-14T22:22:24.114Z,29.42
2023-08-14T22:24:52.952Z,29.45
2023-08-14T22:27:22.649Z,29.48
2023-08-14T22:29:53.219Z,29.53
2023-08-14T22:32:22.191Z,29.49
2023-08-14T22:34:50.856Z,29.46
2023-08-14T22:37:20.102Z,29.44
2023-08-14T22:39:48.975Z,29.49
2023-08-14T22:42:18.056Z,29.50
2023-08-14T22:44:46.789Z,29.36
2023-08-14T22:47:15.853Z,29.39
2023-08-14T22:49:44.629Z,29.38
2023-08-14T22:52:13.902Z,29.37
2023-08-14T22:54:42.578Z,29.36
2023-08-14T22:57:11.637Z,29.32
2023-08-14T22:59:40.349Z,29.32
2023-08-14T23:02:09.487Z,29.36
2023-08-14T23:04:38.174Z,29.39
2023-08-14T23:07:07.548Z,29.40
2023-08-14T23:09:36.392Z,29.38
2023-08-14T23:12:05.594Z,29.34
2023-08-14T23:14:34.233Z,29.22
2023-08-14T23:17:03.329Z,29.11
2023-08-14T23:19:32.091Z,29.04
2023-08-14T23:22:01.123Z,28.97
2023-08-14T23:24:29.877Z,28.84
2023-08-14T23:26:59.304Z,28.93
2023-08-14T23:29:28.107Z,29.06
2023-08-14T23:31:57.155Z,29.07
2023-08-14T23:34:28.166Z,29.16
2023-08-14T23:36:58.576Z,29.20
2023-08-14T23:39:27.395Z,29.20
2023-08-14T23:41:56.447Z,29.17
2023-08-14T23:44:25.176Z,29.12
2023-08-14T23:46:54.228Z,29.08
2023-08-14T23:49:22.967Z,29.07
2023-08-14T23:51:52.046Z,29.09
2023-08-14T23:54:20.995Z,29.11
2023-08-14T23:56:50.065Z,29.11
2023-08-14T23:59:18.900Z,29.08
